sensor_id;sensor_type;location;lat;lon;timestamp;temperature;humidity
8338;DHT22;4206;48.634;9.516;2022-11-20T00:00:24;5.20;99.90
8338;DHT22;4206;48.634;9.516;2022-11-20T00:02:49;5.20;99.90
8338;DHT22;4206;48.634;9.516;2022-11-20T00:05:15;5.10;99.90
8338;DHT22;4206;48.634;9.516;2022-11-20T00:07:41;5.20;99.90
8338;DHT22;4206;48.634;9.516;2022-11-20T00:10:07;5.10;99.90
8338;DHT22;4206;48.634;9.516;2022-11-20T00:12:32;5.10;99.90
8338;DHT22;4206;48.634;9.516;2022-11-20T00:14:58;5.30;99.90
8338;DHT22;4206;48.634;9.516;2022-11-20T00:17:24;5.10;99.90
8338;DHT22;4206;48.634;9.516;2022-11-20T00:19:49;5.10;99.90
8338;DHT22;4206;48.634;9.516;2022-11-20T00:22:15;5.00;99.90
8338;DHT22;4206;48.634;9.516;2022-11-20T00:24:41;5.00;99.90
8338;DHT22;4206;48.634;9.516;2022-11-20T00:27:06;5.00;99.90
8338;DHT22;4206;48.634;9.516;2022-11-20T00:29:32;4.90;99.90
8338;DHT22;4206;48.634;9.516;2022-11-20T00:31:58;4.90;99.90
8338;DHT22;4206;48.634;9.516;2022-11-20T00:34:23;4.90;99.90
8338;DHT22;4206;48.634;9.516;2022-11-20T00:36:49;4.90;99.90
8338;DHT22;4206;48.634;9.516;2022-11-20T00:39:15;4.80;99.90
8338;DHT22;4206;48.634;9.516;2022-11-20T00:41:40;4.90;99.90
8338;DHT22;4206;48.634;9.516;2022-11-20T00:44:06;4.90;99.90
8338;DHT22;4206;48.634;9.516;2022-11-20T00:46:32;4.60;99.90
8338;DHT22;4206;48.634;9.516;2022-11-20T00:48:58;4.90;99.90
8338;DHT22;4206;48.634;9.516;2022-11-20T00:51:25;4.80;99.90
8338;DHT22;4206;48.634;9.516;2022-11-20T00:53:51;4.90;99.90
8338;DHT22;4206;48.634;9.516;2022-11-20T00:56:18;4.80;99.90
8338;DHT22;4206;48.634;9.516;2022-11-20T00:58:46;4.70;99.90
8338;DHT22;4206;48.634;9.516;2022-11-20T01:01:16;4.70;99.90
8338;DHT22;4206;48.634;9.516;2022-11-20T01:03:45;4.60;99.90
8338;DHT22;4206;48.634;9.516;2022-11-20T01:06:14;4.60;99.90
8338;DHT22;4206;48.634;9.516;2022-11-20T01:08:40;4.60;99.90
8338;DHT22;4206;48.634;9.516;2022-11-20T01:11:08;4.60;99.90
8338;DHT22;4206;48.634;9.516;2022-11-20T01:13:34;4.50;99.90
8338;DHT22;4206;48.634;9.516;2022-11-20T01:16:13;4.50;99.90
8338;DHT22;4206;48.634;9.516;2022-11-20T01:18:41;4.40;99.90
8338;DHT22;4206;48.634;9.516;2022-11-20T01:21:11;4.40;99.90
8338;DHT22;4206;48.634;9.516;2022-11-20T01:23:38;4.30;99.90
8338;DHT22;4206;48.634;9.516;2022-11-20T01:26:06;4.20;99.90
8338;DHT22;4206;48.634;9.516;2022-11-20T01:28:32;4.20;99.90
8338;DHT22;4206;48.634;9.516;2022-11-20T01:30:58;4.20;99.90
8338;DHT22;4206;48.634;9.516;2022-11-20T01:33:24;4.10;99.90
8338;DHT22;4206;48.634;9.516;2022-11-20T01:35:51;4.10;99.90
8338;DHT22;4206;48.634;9.516;2022-11-20T01:38:17;4.00;99.90
8338;DHT22;4206;48.634;9.516;2022-11-20T01:40:43;4.00;99.90
8338;DHT22;4206;48.634;9.516;2022-11-20T01:43:24;4.00;99.90
8338;DHT22;4206;48.634;9.516;2022-11-20T01:48:46;4.00;99.90
8338;DHT22;4206;48.634;9.516;2022-11-20T01:51:21;3.90;99.90
8338;DHT22;4206;48.634;9.516;2022-11-20T01:53:48;4.00;99.90
8338;DHT22;4206;48.634;9.516;2022-11-20T01:56:15;4.00;99.90
8338;DHT22;4206;48.634;9.516;2022-11-20T01:58:47;4.10;99.90
8338;DHT22;4206;48.634;9.516;2022-11-20T02:01:13;4.00;99.90
8338;DHT22;4206;48.634;9.516;2022-11-20T02:03:40;4.00;99.90
8338;DHT22;4206;48.634;9.516;2022-11-20T02:06:10;3.90;99.90
8338;DHT22;4206;48.634;9.516;2022-11-20T02:08:37;3.80;99.90
8338;DHT22;4206;48.634;9.516;2022-11-20T02:11:03;3.80;99.90
8338;DHT22;4206;48.634;9.516;2022-11-20T02:13:29;3.80;99.90
8338;DHT22;4206;48.634;9.516;2022-11-20T02:16:15;3.80;99.90
8338;DHT22;4206;48.634;9.516;2022-11-20T02:18:41;3.70;99.90
8338;DHT22;4206;48.634;9.516;2022-11-20T02:29:09;3.50;99.90
8338;DHT22;4206;48.634;9.516;2022-11-20T02:31:38;3.50;99.90
8338;DHT22;4206;48.634;9.516;2022-11-20T02:34:05;3.50;99.90
8338;DHT22;4206;48.634;9.516;2022-11-20T02:36:32;3.60;99.90
8338;DHT22;4206;48.634;9.516;2022-11-20T02:39:00;3.60;99.90
8338;DHT22;4206;48.634;9.516;2022-11-20T02:41:36;3.60;99.90
8338;DHT22;4206;48.634;9.516;2022-11-20T02:44:03;3.60;99.90
8338;DHT22;4206;48.634;9.516;2022-11-20T02:46:30;3.50;99.90
8338;DHT22;4206;48.634;9.516;2022-11-20T02:48:56;3.50;99.90
8338;DHT22;4206;48.634;9.516;2022-11-20T02:51:22;3.40;99.90
8338;DHT22;4206;48.634;9.516;2022-11-20T02:53:48;3.60;99.90
8338;DHT22;4206;48.634;9.516;2022-11-20T02:56:14;3.50;99.90
8338;DHT22;4206;48.634;9.516;2022-11-20T02:58:40;3.50;99.90
8338;DHT22;4206;48.634;9.516;2022-11-20T03:01:06;3.50;99.90
8338;DHT22;4206;48.634;9.516;2022-11-20T03:03:31;3.50;99.90
8338;DHT22;4206;48.634;9.516;2022-11-20T03:05:59;3.50;99.90
8338;DHT22;4206;48.634;9.516;2022-11-20T03:08:24;3.50;99.90
8338;DHT22;4206;48.634;9.516;2022-11-20T03:10:50;3.40;99.90
8338;DHT22;4206;48.634;9.516;2022-11-20T03:13:16;3.50;99.90
8338;DHT22;4206;48.634;9.516;2022-11-20T03:15:41;3.50;99.90
8338;DHT22;4206;48.634;9.516;2022-11-20T03:18:07;3.60;99.90
8338;DHT22;4206;48.634;9.516;2022-11-20T03:20:33;3.70;99.90
8338;DHT22;4206;48.634;9.516;2022-11-20T03:22:59;3.80;99.90
8338;DHT22;4206;48.634;9.516;2022-11-20T03:25:25;4.10;99.90
8338;DHT22;4206;48.634;9.516;2022-11-20T03:27:50;4.20;99.90
8338;DHT22;4206;48.634;9.516;2022-11-20T03:30:16;4.30;99.90
8338;DHT22;4206;48.634;9.516;2022-11-20T03:32:42;4.40;99.90
8338;DHT22;4206;48.634;9.516;2022-11-20T03:35:08;4.30;99.90
8338;DHT22;4206;48.634;9.516;2022-11-20T03:37:34;4.30;99.90
8338;DHT22;4206;48.634;9.516;2022-11-20T03:39:59;4.30;99.90
8338;DHT22;4206;48.634;9.516;2022-11-20T03:42:25;4.30;99.90
8338;DHT22;4206;48.634;9.516;2022-11-20T03:45:06;4.40;99.90
8338;DHT22;4206;48.634;9.516;2022-11-20T03:47:32;4.40;99.90
8338;DHT22;4206;48.634;9.516;2022-11-20T03:49:57;4.40;99.90
8338;DHT22;4206;48.634;9.516;2022-11-20T03:52:23;4.40;99.90
8338;DHT22;4206;48.634;9.516;2022-11-20T03:54:49;4.50;99.90
8338;DHT22;4206;48.634;9.516;2022-11-20T03:57:14;4.70;99.90
8338;DHT22;4206;48.634;9.516;2022-11-20T03:59:40;4.70;99.90
8338;DHT22;4206;48.634;9.516;2022-11-20T04:02:05;4.70;99.90
8338;DHT22;4206;48.634;9.516;2022-11-20T04:04:31;4.70;99.90
8338;DHT22;4206;48.634;9.516;2022-11-20T04:06:57;4.80;99.90
8338;DHT22;4206;48.634;9.516;2022-11-20T04:09:22;4.80;99.90
8338;DHT22;4206;48.634;9.516;2022-11-20T04:11:48;4.90;99.90
8338;DHT22;4206;48.634;9.516;2022-11-20T04:14:15;4.80;99.90
8338;DHT22;4206;48.634;9.516;2022-11-20T04:16:42;4.90;99.90
8338;DHT22;4206;48.634;9.516;2022-11-20T04:19:13;4.90;99.90
8338;DHT22;4206;48.634;9.516;2022-11-20T04:21:39;4.90;99.90
8338;DHT22;4206;48.634;9.516;2022-11-20T04:24:06;4.90;99.90
8338;DHT22;4206;48.634;9.516;2022-11-20T04:26:32;5.10;99.90
8338;DHT22;4206;48.634;9.516;2022-11-20T04:28:58;5.20;99.90
8338;DHT22;4206;48.634;9.516;2022-11-20T04:31:29;5.20;99.90
8338;DHT22;4206;48.634;9.516;2022-11-20T04:33:55;5.20;99.90
8338;DHT22;4206;48.634;9.516;2022-11-20T04:36:25;5.40;99.90
8338;DHT22;4206;48.634;9.516;2022-11-20T04:38:53;5.40;99.90
8338;DHT22;4206;48.634;9.516;2022-11-20T04:41:21;5.40;99.90
8338;DHT22;4206;48.634;9.516;2022-11-20T04:43:48;5.50;99.90
8338;DHT22;4206;48.634;9.516;2022-11-20T04:46:15;5.50;99.90
8338;DHT22;4206;48.634;9.516;2022-11-20T04:48:40;5.50;99.90
8338;DHT22;4206;48.634;9.516;2022-11-20T04:51:06;5.50;99.90
8338;DHT22;4206;48.634;9.516;2022-11-20T04:53:32;5.60;99.90
8338;DHT22;4206;48.634;9.516;2022-11-20T04:56:02;5.50;99.90
8338;DHT22;4206;48.634;9.516;2022-11-20T04:58:28;5.50;99.90
8338;DHT22;4206;48.634;9.516;2022-11-20T05:00:53;5.60;99.90
8338;DHT22;4206;48.634;9.516;2022-11-20T05:03:25;5.60;99.90
8338;DHT22;4206;48.634;9.516;2022-11-20T05:05:51;5.50;99.90
8338;DHT22;4206;48.634;9.516;2022-11-20T05:08:16;5.50;99.90
8338;DHT22;4206;48.634;9.516;2022-11-20T05:10:42;5.50;99.90
8338;DHT22;4206;48.634;9.516;2022-11-20T05:13:07;5.60;99.90
8338;DHT22;4206;48.634;9.516;2022-11-20T05:15:33;5.50;99.90
8338;DHT22;4206;48.634;9.516;2022-11-20T05:17:58;5.60;99.90
8338;DHT22;4206;48.634;9.516;2022-11-20T05:20:24;5.60;99.90
8338;DHT22;4206;48.634;9.516;2022-11-20T05:22:50;5.60;99.90
8338;DHT22;4206;48.634;9.516;2022-11-20T05:25:15;5.60;99.90
8338;DHT22;4206;48.634;9.516;2022-11-20T05:27:41;5.70;99.90
8338;DHT22;4206;48.634;9.516;2022-11-20T05:30:07;5.70;99.90
8338;DHT22;4206;48.634;9.516;2022-11-20T05:32:33;5.70;99.90
8338;DHT22;4206;48.634;9.516;2022-11-20T05:34:59;5.80;99.90
8338;DHT22;4206;48.634;9.516;2022-11-20T05:37:24;5.90;99.90
8338;DHT22;4206;48.634;9.516;2022-11-20T05:39:50;5.80;99.90
8338;DHT22;4206;48.634;9.516;2022-11-20T05:42:16;5.80;99.90
8338;DHT22;4206;48.634;9.516;2022-11-20T05:44:57;5.80;99.90
8338;DHT22;4206;48.634;9.516;2022-11-20T05:47:23;5.70;99.90
8338;DHT22;4206;48.634;9.516;2022-11-20T05:49:49;5.70;99.90
8338;DHT22;4206;48.634;9.516;2022-11-20T05:52:15;5.80;99.90
8338;DHT22;4206;48.634;9.516;2022-11-20T05:54:40;5.90;99.90
8338;DHT22;4206;48.634;9.516;2022-11-20T05:57:06;5.90;99.90
8338;DHT22;4206;48.634;9.516;2022-11-20T05:59:31;6.00;99.90
8338;DHT22;4206;48.634;9.516;2022-11-20T06:01:57;5.90;99.90
8338;DHT22;4206;48.634;9.516;2022-11-20T06:04:23;5.90;99.90
8338;DHT22;4206;48.634;9.516;2022-11-20T06:06:48;5.90;99.90
8338;DHT22;4206;48.634;9.516;2022-11-20T06:09:14;5.90;99.90
8338;DHT22;4206;48.634;9.516;2022-11-20T06:11:39;5.90;99.90
8338;DHT22;4206;48.634;9.516;2022-11-20T06:14:05;6.10;99.90
8338;DHT22;4206;48.634;9.516;2022-11-20T06:16:31;6.00;99.90
8338;DHT22;4206;48.634;9.516;2022-11-20T06:18:57;5.90;99.90
8338;DHT22;4206;48.634;9.516;2022-11-20T06:21:22;5.90;99.90
8338;DHT22;4206;48.634;9.516;2022-11-20T06:23:50;6.00;99.90
8338;DHT22;4206;48.634;9.516;2022-11-20T06:26:21;5.90;99.90
8338;DHT22;4206;48.634;9.516;2022-11-20T06:28:47;5.90;99.90
8338;DHT22;4206;48.634;9.516;2022-11-20T06:31:16;5.90;99.90
8338;DHT22;4206;48.634;9.516;2022-11-20T06:33:43;5.90;99.90
8338;DHT22;4206;48.634;9.516;2022-11-20T06:36:10;5.90;99.90
8338;DHT22;4206;48.634;9.516;2022-11-20T06:38:37;5.80;99.90
8338;DHT22;4206;48.634;9.516;2022-11-20T06:41:04;5.90;99.90
8338;DHT22;4206;48.634;9.516;2022-11-20T06:43:30;5.90;99.90
8338;DHT22;4206;48.634;9.516;2022-11-20T06:45:57;6.00;99.90
8338;DHT22;4206;48.634;9.516;2022-11-20T06:48:23;6.00;99.90
8338;DHT22;4206;48.634;9.516;2022-11-20T06:50:49;6.00;99.90
8338;DHT22;4206;48.634;9.516;2022-11-20T06:53:15;5.90;99.90
8338;DHT22;4206;48.634;9.516;2022-11-20T06:55:44;6.00;99.90
8338;DHT22;4206;48.634;9.516;2022-11-20T06:58:10;6.00;99.90
8338;DHT22;4206;48.634;9.516;2022-11-20T07:00:36;6.00;99.90
8338;DHT22;4206;48.634;9.516;2022-11-20T07:03:03;6.00;99.90
8338;DHT22;4206;48.634;9.516;2022-11-20T07:05:29;6.10;99.90
8338;DHT22;4206;48.634;9.516;2022-11-20T07:07:56;6.00;99.90
8338;DHT22;4206;48.634;9.516;2022-11-20T07:10:23;6.00;99.90
8338;DHT22;4206;48.634;9.516;2022-11-20T07:12:49;6.00;99.90
8338;DHT22;4206;48.634;9.516;2022-11-20T07:15:16;6.20;99.90
8338;DHT22;4206;48.634;9.516;2022-11-20T07:17:42;6.20;99.90
8338;DHT22;4206;48.634;9.516;2022-11-20T07:20:08;6.10;99.90
8338;DHT22;4206;48.634;9.516;2022-11-20T07:22:34;6.20;99.90
8338;DHT22;4206;48.634;9.516;2022-11-20T07:24:59;6.20;99.90
8338;DHT22;4206;48.634;9.516;2022-11-20T07:27:25;6.20;99.90
8338;DHT22;4206;48.634;9.516;2022-11-20T07:29:50;6.10;99.90
8338;DHT22;4206;48.634;9.516;2022-11-20T07:32:16;6.20;99.90
8338;DHT22;4206;48.634;9.516;2022-11-20T07:34:42;6.10;99.90
8338;DHT22;4206;48.634;9.516;2022-11-20T07:37:08;6.10;99.90
8338;DHT22;4206;48.634;9.516;2022-11-20T07:39:33;6.20;99.90
8338;DHT22;4206;48.634;9.516;2022-11-20T07:41:59;6.20;99.90
8338;DHT22;4206;48.634;9.516;2022-11-20T07:44:24;6.20;99.90
8338;DHT22;4206;48.634;9.516;2022-11-20T07:46:50;6.20;99.90
8338;DHT22;4206;48.634;9.516;2022-11-20T07:49:16;6.20;99.90
8338;DHT22;4206;48.634;9.516;2022-11-20T07:51:41;6.20;99.90
8338;DHT22;4206;48.634;9.516;2022-11-20T07:54:07;6.20;99.90
8338;DHT22;4206;48.634;9.516;2022-11-20T07:56:32;6.30;99.90
8338;DHT22;4206;48.634;9.516;2022-11-20T07:58:58;6.30;99.90
8338;DHT22;4206;48.634;9.516;2022-11-20T08:01:24;6.30;99.90
8338;DHT22;4206;48.634;9.516;2022-11-20T08:03:49;6.30;99.90
8338;DHT22;4206;48.634;9.516;2022-11-20T08:06:15;6.40;99.90
8338;DHT22;4206;48.634;9.516;2022-11-20T08:08:40;6.40;99.90
8338;DHT22;4206;48.634;9.516;2022-11-20T08:11:06;6.50;99.90
8338;DHT22;4206;48.634;9.516;2022-11-20T08:13:47;6.40;99.90
8338;DHT22;4206;48.634;9.516;2022-11-20T08:16:28;6.50;99.90
8338;DHT22;4206;48.634;9.516;2022-11-20T08:18:54;6.50;99.90
8338;DHT22;4206;48.634;9.516;2022-11-20T08:21:20;6.70;99.90
8338;DHT22;4206;48.634;9.516;2022-11-20T08:23:46;6.60;99.90
8338;DHT22;4206;48.634;9.516;2022-11-20T08:26:11;6.70;99.90
8338;DHT22;4206;48.634;9.516;2022-11-20T08:28:37;6.70;99.90
8338;DHT22;4206;48.634;9.516;2022-11-20T08:31:04;6.90;99.90
8338;DHT22;4206;48.634;9.516;2022-11-20T08:33:30;6.80;99.90
8338;DHT22;4206;48.634;9.516;2022-11-20T08:36:00;6.80;99.90
8338;DHT22;4206;48.634;9.516;2022-11-20T08:38:26;6.80;99.90
8338;DHT22;4206;48.634;9.516;2022-11-20T08:40:51;6.80;99.90
8338;DHT22;4206;48.634;9.516;2022-11-20T08:43:33;6.90;99.90
8338;DHT22;4206;48.634;9.516;2022-11-20T08:45:58;6.90;99.90
8338;DHT22;4206;48.634;9.516;2022-11-20T08:48:24;7.10;99.90
8338;DHT22;4206;48.634;9.516;2022-11-20T08:50:50;7.10;99.90
8338;DHT22;4206;48.634;9.516;2022-11-20T08:53:15;7.00;99.90
8338;DHT22;4206;48.634;9.516;2022-11-20T08:55:41;7.00;99.90
8338;DHT22;4206;48.634;9.516;2022-11-20T08:58:06;7.10;99.90
8338;DHT22;4206;48.634;9.516;2022-11-20T09:00:33;7.10;99.90
8338;DHT22;4206;48.634;9.516;2022-11-20T09:02:59;7.00;99.90
8338;DHT22;4206;48.634;9.516;2022-11-20T09:05:26;7.00;99.90
8338;DHT22;4206;48.634;9.516;2022-11-20T09:07:55;7.00;99.90
8338;DHT22;4206;48.634;9.516;2022-11-20T09:10:21;6.90;99.90
8338;DHT22;4206;48.634;9.516;2022-11-20T09:12:49;7.00;99.90
8338;DHT22;4206;48.634;9.516;2022-11-20T09:15:15;7.00;99.90
8338;DHT22;4206;48.634;9.516;2022-11-20T09:17:41;6.90;99.90
8338;DHT22;4206;48.634;9.516;2022-11-20T09:20:07;6.90;99.90
8338;DHT22;4206;48.634;9.516;2022-11-20T09:22:33;6.90;99.90
8338;DHT22;4206;48.634;9.516;2022-11-20T09:24:59;6.90;99.90
8338;DHT22;4206;48.634;9.516;2022-11-20T09:27:24;6.80;99.90
8338;DHT22;4206;48.634;9.516;2022-11-20T09:29:50;6.80;99.90
8338;DHT22;4206;48.634;9.516;2022-11-20T09:32:16;6.80;99.90
8338;DHT22;4206;48.634;9.516;2022-11-20T09:34:41;6.90;99.90
8338;DHT22;4206;48.634;9.516;2022-11-20T09:37:07;6.90;99.90
8338;DHT22;4206;48.634;9.516;2022-11-20T09:39:33;6.90;99.90
8338;DHT22;4206;48.634;9.516;2022-11-20T09:42:04;6.90;99.90
8338;DHT22;4206;48.634;9.516;2022-11-20T09:50:12;6.90;99.90
8338;DHT22;4206;48.634;9.516;2022-11-20T09:55:19;7.00;99.90
8338;DHT22;4206;48.634;9.516;2022-11-20T09:57:47;6.90;99.90
8338;DHT22;4206;48.634;9.516;2022-11-20T10:00:15;7.00;99.90
8338;DHT22;4206;48.634;9.516;2022-11-20T10:03:06;7.00;99.90
8338;DHT22;4206;48.634;9.516;2022-11-20T10:05:40;6.90;99.90
8338;DHT22;4206;48.634;9.516;2022-11-20T10:08:17;6.90;99.90
8338;DHT22;4206;48.634;9.516;2022-11-20T10:10:49;6.90;99.90
8338;DHT22;4206;48.634;9.516;2022-11-20T10:19:04;6.90;99.90
8338;DHT22;4206;48.634;9.516;2022-11-20T10:27:07;6.90;99.90
8338;DHT22;4206;48.634;9.516;2022-11-20T10:29:36;6.90;99.90
8338;DHT22;4206;48.634;9.516;2022-11-20T10:32:09;6.90;99.90
8338;DHT22;4206;48.634;9.516;2022-11-20T10:34:46;6.90;99.90
8338;DHT22;4206;48.634;9.516;2022-11-20T10:37:19;6.90;99.90
8338;DHT22;4206;48.634;9.516;2022-11-20T10:42:42;6.90;99.90
8338;DHT22;4206;48.634;9.516;2022-11-20T10:45:19;7.00;99.90
8338;DHT22;4206;48.634;9.516;2022-11-20T10:47:47;7.00;99.90
8338;DHT22;4206;48.634;9.516;2022-11-20T10:50:18;6.90;99.90
8338;DHT22;4206;48.634;9.516;2022-11-20T10:53:03;6.90;99.90
8338;DHT22;4206;48.634;9.516;2022-11-20T11:00:25;6.80;99.90
8338;DHT22;4206;48.634;9.516;2022-11-20T11:02:52;6.70;99.90
8338;DHT22;4206;48.634;9.516;2022-11-20T11:05:36;6.60;99.90
8338;DHT22;4206;48.634;9.516;2022-11-20T11:08:05;6.60;99.90
8338;DHT22;4206;48.634;9.516;2022-11-20T11:13:24;6.70;99.90
8338;DHT22;4206;48.634;9.516;2022-11-20T11:15:50;6.70;99.90
8338;DHT22;4206;48.634;9.516;2022-11-20T11:18:32;6.70;99.90
8338;DHT22;4206;48.634;9.516;2022-11-20T11:21:00;6.80;99.90
8338;DHT22;4206;48.634;9.516;2022-11-20T11:23:34;6.80;99.90
8338;DHT22;4206;48.634;9.516;2022-11-20T11:26:01;6.80;99.90
8338;DHT22;4206;48.634;9.516;2022-11-20T11:28:28;6.90;99.90
8338;DHT22;4206;48.634;9.516;2022-11-20T11:30:54;6.90;99.90
8338;DHT22;4206;48.634;9.516;2022-11-20T11:33:22;6.90;99.90
8338;DHT22;4206;48.634;9.516;2022-11-20T11:35:52;6.90;99.90
8338;DHT22;4206;48.634;9.516;2022-11-20T11:40:56;6.90;99.90
8338;DHT22;4206;48.634;9.516;2022-11-20T11:43:25;7.00;99.90
8338;DHT22;4206;48.634;9.516;2022-11-20T11:51:34;7.20;99.90
8338;DHT22;4206;48.634;9.516;2022-11-20T11:54:11;7.30;99.90
8338;DHT22;4206;48.634;9.516;2022-11-20T11:56:38;7.20;99.90
8338;DHT22;4206;48.634;9.516;2022-11-20T11:59:06;7.20;99.90
8338;DHT22;4206;48.634;9.516;2022-11-20T12:01:44;7.20;99.90
8338;DHT22;4206;48.634;9.516;2022-11-20T12:07:14;7.30;99.90
8338;DHT22;4206;48.634;9.516;2022-11-20T12:09:48;7.30;99.90
8338;DHT22;4206;48.634;9.516;2022-11-20T12:12:20;8.10;99.90
8338;DHT22;4206;48.634;9.516;2022-11-20T16:15:13;4.60;99.90
8338;DHT22;4206;48.634;9.516;2022-11-20T16:17:54;5.40;99.90
8338;DHT22;4206;48.634;9.516;2022-11-20T16:20:19;5.20;99.90
8338;DHT22;4206;48.634;9.516;2022-11-20T16:22:45;5.10;99.90
8338;DHT22;4206;48.634;9.516;2022-11-20T16:25:11;5.00;99.90
8338;DHT22;4206;48.634;9.516;2022-11-20T16:27:36;4.90;99.90
8338;DHT22;4206;48.634;9.516;2022-11-20T16:30:02;4.90;99.90
8338;DHT22;4206;48.634;9.516;2022-11-20T16:32:28;4.80;99.90
8338;DHT22;4206;48.634;9.516;2022-11-20T16:34:53;4.70;99.90
8338;DHT22;4206;48.634;9.516;2022-11-20T16:37:19;4.80;99.90
8338;DHT22;4206;48.634;9.516;2022-11-20T16:39:44;4.80;99.90
8338;DHT22;4206;48.634;9.516;2022-11-20T16:42:10;4.80;99.90
8338;DHT22;4206;48.634;9.516;2022-11-20T16:44:36;4.70;99.90
8338;DHT22;4206;48.634;9.516;2022-11-20T16:47:01;4.70;99.90
8338;DHT22;4206;48.634;9.516;2022-11-20T16:49:27;4.70;99.90
8338;DHT22;4206;48.634;9.516;2022-11-20T16:51:52;4.70;99.90
8338;DHT22;4206;48.634;9.516;2022-11-20T16:54:18;4.70;99.90
8338;DHT22;4206;48.634;9.516;2022-11-20T16:56:44;4.70;99.90
8338;DHT22;4206;48.634;9.516;2022-11-20T16:59:12;4.60;99.90
8338;DHT22;4206;48.634;9.516;2022-11-20T19:36:32;6.00;99.90
8338;DHT22;4206;48.634;9.516;2022-11-20T19:38:58;5.90;99.90
8338;DHT22;4206;48.634;9.516;2022-11-20T19:41:27;5.90;99.90
8338;DHT22;4206;48.634;9.516;2022-11-20T19:43:55;5.80;99.90
8338;DHT22;4206;48.634;9.516;2022-11-20T19:46:32;5.80;99.90
8338;DHT22;4206;48.634;9.516;2022-11-20T19:51:27;5.50;99.90
8338;DHT22;4206;48.634;9.516;2022-11-20T19:53:55;5.40;99.90
8338;DHT22;4206;48.634;9.516;2022-11-20T19:56:21;5.40;99.90
8338;DHT22;4206;48.634;9.516;2022-11-20T22:28:28;5.20;99.90
8338;DHT22;4206;48.634;9.516;2022-11-20T22:30:58;5.20;99.90
8338;DHT22;4206;48.634;9.516;2022-11-20T22:33:24;5.10;99.90
8338;DHT22;4206;48.634;9.516;2022-11-20T22:35:50;5.20;99.90
8338;DHT22;4206;48.634;9.516;2022-11-20T22:38:16;5.20;99.90
8338;DHT22;4206;48.634;9.516;2022-11-20T22:40:41;5.20;99.90
8338;DHT22;4206;48.634;9.516;2022-11-20T22:43:08;5.20;99.90
8338;DHT22;4206;48.634;9.516;2022-11-20T22:45:34;5.30;99.90
8338;DHT22;4206;48.634;9.516;2022-11-20T22:47:59;5.30;99.90
8338;DHT22;4206;48.634;9.516;2022-11-20T22:50:25;5.30;99.90
8338;DHT22;4206;48.634;9.516;2022-11-20T22:52:50;5.30;99.90
8338;DHT22;4206;48.634;9.516;2022-11-20T22:55:16;5.20;99.90
8338;DHT22;4206;48.634;9.516;2022-11-20T22:57:42;5.20;99.90
8338;DHT22;4206;48.634;9.516;2022-11-20T23:00:08;5.20;99.90
8338;DHT22;4206;48.634;9.516;2022-11-20T23:02:33;5.20;99.90
8338;DHT22;4206;48.634;9.516;2022-11-20T23:04:59;5.20;99.90
8338;DHT22;4206;48.634;9.516;2022-11-20T23:07:24;5.20;99.90
8338;DHT22;4206;48.634;9.516;2022-11-20T23:09:50;5.20;99.90
8338;DHT22;4206;48.634;9.516;2022-11-20T23:12:16;5.20;99.90
8338;DHT22;4206;48.634;9.516;2022-11-20T23:14:41;5.20;99.90
8338;DHT22;4206;48.634;9.516;2022-11-20T23:17:07;5.10;99.90
8338;DHT22;4206;48.634;9.516;2022-11-20T23:19:32;5.20;99.90
8338;DHT22;4206;48.634;9.516;2022-11-20T23:21:58;5.10;99.90
8338;DHT22;4206;48.634;9.516;2022-11-20T23:24:23;5.10;99.90
8338;DHT22;4206;48.634;9.516;2022-11-20T23:26:49;5.10;99.90
8338;DHT22;4206;48.634;9.516;2022-11-20T23:29:15;5.00;99.90
8338;DHT22;4206;48.634;9.516;2022-11-20T23:31:41;5.10;99.90
8338;DHT22;4206;48.634;9.516;2022-11-20T23:34:07;5.00;99.90
8338;DHT22;4206;48.634;9.516;2022-11-20T23:36:33;5.00;99.90
8338;DHT22;4206;48.634;9.516;2022-11-20T23:38:59;5.00;99.90
8338;DHT22;4206;48.634;9.516;2022-11-20T23:41:24;4.90;99.90
8338;DHT22;4206;48.634;9.516;2022-11-20T23:43:51;4.90;99.90
8338;DHT22;4206;48.634;9.516;2022-11-20T23:46:17;5.00;99.90
8338;DHT22;4206;48.634;9.516;2022-11-20T23:48:43;5.10;99.90
8338;DHT22;4206;48.634;9.516;2022-11-20T23:51:09;5.10;99.90
8338;DHT22;4206;48.634;9.516;2022-11-20T23:53:35;5.10;99.90
8338;DHT22;4206;48.634;9.516;2022-11-20T23:56:02;5.20;99.90
8338;DHT22;4206;48.634;9.516;2022-11-20T23:58:32;5.20;99.90
